Flight Track Log - Related Links

Times and Time Zones

All times are in EDT time to prevent confusion due to time zone crossing. See the SKQ45 flight status page for this flight to view local times or setup timezone preferences in your user account.

Time Position Orientation Groundspeed Altitude Reporting Facility
EDT Latitude Longitude Course Direction KTS MPH feet Rate Location/Type
Wed 02:41:07 AM 40.0219 -83.1167 193° South 156 180 3,500  Level Indianapolis Center
Wed 02:42:07 AM 39.9797 -83.0925 156° South 171 197 5,100 1,370 Climbing Indianapolis Center
Wed 02:43:14 AM 39.9425 -83.0536 141° Southeast 180 207 6,400 1,181 Climbing Indianapolis Center
Wed 02:44:14 AM 39.8981 -83.0136 145° Southeast 191 220 7,600 1,339 Climbing Indianapolis Center
Wed 02:45:15 AM 39.8553 -82.9694 142° Southeast 193 222 9,100 1,488 Climbing Indianapolis Center
Wed 02:46:15 AM 39.8119 -82.9283 144° Southeast 190 219 10,600 1,350 Climbing Indianapolis Center
Wed 02:47:15 AM 39.7678 -82.8842 142° Southeast 197 227 11,800 1,300 Climbing Indianapolis Center
Wed 02:48:15 AM 39.7219 -82.8397 143° Southeast 203 234 13,200 1,500 Climbing Indianapolis Center
Wed 02:49:15 AM 39.6767 -82.7942 142° Southeast 203 234 14,800 1,400 Climbing Indianapolis Center
Wed 02:50:15 AM 39.6286 -82.7486 144° Southeast 211 243 16,000 1,240 Climbing Indianapolis Center
Wed 02:51:16 AM 39.5794 -82.7008 143° Southeast 218 251 17,300 1,041 Climbing Indianapolis Center
Wed 02:52:16 AM 39.5289 -82.6514 143° Southeast 225 259 18,100 800 Climbing Indianapolis Center
Wed 02:53:16 AM 39.4781 -82.6025 143° Southeast 225 259 18,900 450 Climbing Indianapolis Center
Wed 02:54:16 AM 39.4197 -82.5456 143° Southeast 257 296 19,000 50 Climbing Indianapolis Center
Wed 02:55:16 AM 39.3567 -82.4856 144° Southeast 275 316 19,000  Level Indianapolis Center
Wed 02:56:17 AM 39.2903 -82.4219 143° Southeast 287 330 19,000  Level Indianapolis Center
Wed 02:57:17 AM 39.2261 -82.3600 143° Southeast 288 331 19,000  Level Indianapolis Center
Wed 02:58:17 AM 39.1625 -82.2986 143° Southeast 287 330 19,000  Level Indianapolis Center
Wed 02:59:17 AM 39.0986 -82.2378 144° Southeast 287 330 19,000  Level Indianapolis Center
Wed 03:00:17 AM 39.0353 -82.1772 143° Southeast 286 329 19,000  Level Indianapolis Center
Wed 03:01:17 AM 38.9719 -82.1172 144° Southeast 283 326 19,000  Level Indianapolis Center
Wed 03:02:17 AM 38.9081 -82.0553 143° Southeast 287 330 19,000  Level Indianapolis Center
Wed 03:03:18 AM 38.8436 -81.9947 144° Southeast 289 333 19,000  Level Indianapolis Center
Wed 03:04:18 AM 38.7789 -81.9339 144° Southeast 289 333 19,000  Level Indianapolis Center
Wed 03:05:18 AM 38.7147 -81.8733 144° Southeast 289 333 19,000  Level Indianapolis Center
Wed 03:06:18 AM 38.6508 -81.8142 144° Southeast 287 330 19,000  Level Indianapolis Center
Wed 03:07:18 AM 38.5861 -81.7536 144° Southeast 290 334 19,000  Level Indianapolis Center
Wed 03:08:18 AM 38.5219 -81.6933 144° Southeast 290 334 19,000  Level Indianapolis Center
Wed 03:09:18 AM 38.4572 -81.6319 143° Southeast 292 336 19,000  Level Indianapolis Center
Wed 03:10:19 AM 38.3917 -81.5717 144° Southeast 292 336 19,000 50 Level Indianapolis Center
Wed 03:11:19 AM 38.3264 -81.5111 144° Southeast 289 333 19,100  Climbing Indianapolis Center
Wed 03:12:19 AM 38.2742 -81.4325 130° Southeast 295 339 19,000 -50 Descending Indianapolis Center
Wed 03:13:19 AM 38.2294 -81.3489 124° Southeast 290 334 19,000  Level Indianapolis Center
Wed 03:14:19 AM 38.1847 -81.2625 123° Southeast 292 336 19,000  Level Indianapolis Center
Wed 03:15:19 AM 38.1403 -81.1756 123° Southeast 295 339 19,000  Level Indianapolis Center
Wed 03:16:19 AM 38.0956 -81.0911 124° Southeast 289 333 19,000  Level Indianapolis Center
Wed 03:17:20 AM 38.0506 -81.0058 124° Southeast 291 335 19,000  Level Indianapolis Center
Wed 03:18:20 AM 38.0069 -80.9208 123° Southeast 289 333 19,000  Level Indianapolis Center
Wed 03:19:20 AM 37.9631 -80.8361 123° Southeast 287 330 19,000  Level Indianapolis Center
Wed 03:20:20 AM 37.9125 -80.7603 130° Southeast 283 326 19,000  Level Indianapolis Center
Wed 03:21:20 AM 37.8408 -80.7178 155° Southeast 284 327 19,000  Level Indianapolis Center
Wed 03:22:20 AM 37.7667 -80.6656 151° Southeast 282 325 19,000  Level Indianapolis Center
Wed 03:23:21 AM 37.6992 -80.6183 151° Southeast 283 326 19,000  Level Indianapolis Center
Wed 03:24:21 AM 37.6331 -80.5717 151° Southeast 282 325 19,000  Level Indianapolis Center
Wed 03:25:21 AM 37.5672 -80.5239 150° Southeast 281 323 19,000  Level Indianapolis Center
Wed 03:26:21 AM 37.5014 -80.4783 151° Southeast 279 321 19,000 -100 Level Indianapolis Center
Wed 03:27:21 AM 37.4214 -80.4219 151° Southeast 281 323 18,800 -528 Descending Indianapolis Center
Wed 03:28:26 AM 37.3478 -80.3728 152° Southeast 282 325 17,900 -624 Descending Washington Center
Wed 03:29:26 AM 37.2747 -80.3239 152° Southeast 293 337 17,500 -650 Descending Washington Center
Wed 03:30:26 AM 37.1936 -80.2667 151° Southeast 298 343 16,600 -850 Descending Washington Center
Wed 03:31:26 AM 37.1203 -80.2153 151° Southeast 303 349 15,800 -800 Descending Washington Center
Wed 03:32:26 AM 37.0472 -80.1642 151° Southeast 298 343 15,000 -750 Descending Washington Center
Wed 03:33:26 AM 36.9822 -80.1186 151° Southeast 298 343 14,300 -700 Descending Washington Center
Wed 03:35:00 AM 36.8843 -80.0548 149° Southeast  Level FlightAware
Wed 03:42:00 AM 36.4610 -79.7564 150° Southeast  Level FlightAware
Wed 03:43:00 AM 36.4001 -79.7122 150° Southeast  Level FlightAware
Wed 03:44:00 AM 36.3396 -79.6671 149° Southeast  Level FlightAware
Wed 03:45:00 AM 36.2792 -79.6219 149° Southeast  Level FlightAware
Wed 03:46:00 AM 36.2155 -79.5893 154° Southeast  Level FlightAware
Wed 03:47:00 AM 36.1520 -79.5512 154° Southeast  Level FlightAware
Wed 03:48:00 AM 36.0916 -79.5062 149° Southeast  Level FlightAware
Wed 03:49:00 AM 36.0485 -79.4749 152° Southeast  Level Estimated
Wed 03:50:00 AM 36.0485 -79.4749 152° Southeast  Level Estimated

Login

Don't have an account? Register now (free) for customized features, flight alerts, and more!